createdAt,value
2019-03-01T00:00:17.182Z,1004.16
2019-03-01T00:01:18.606Z,1004.12
2019-03-01T00:02:19.996Z,1004.15
2019-03-01T00:03:21.391Z,1004.16
2019-03-01T00:04:22.797Z,1004.11
2019-03-01T00:05:24.195Z,1004.14
2019-03-01T00:06:25.599Z,1004.10
2019-03-01T00:07:27.032Z,1004.09
2019-03-01T00:08:28.409Z,1004.06
2019-03-01T00:09:29.807Z,1004.10
2019-03-01T00:10:31.210Z,1004.05
2019-03-01T00:11:32.633Z,1004.02
2019-03-01T00:12:34.027Z,1004.03
2019-03-01T00:13:35.429Z,1003.98
2019-03-01T00:14:36.836Z,1003.99
2019-03-01T00:15:38.228Z,1003.99
2019-03-01T00:16:39.642Z,1003.99
2019-03-01T00:17:41.923Z,1003.95
2019-03-01T00:18:43.341Z,1003.96
2019-03-01T00:19:44.730Z,1003.91
2019-03-01T00:20:46.153Z,1003.90
2019-03-01T00:21:47.550Z,1003.88
2019-03-01T00:22:48.942Z,1003.85
2019-03-01T00:23:50.350Z,1003.83
2019-03-01T00:24:51.752Z,1003.80
2019-03-01T00:25:53.154Z,1003.75
2019-03-01T00:26:54.593Z,1003.74
2019-03-01T00:27:55.982Z,1003.73
2019-03-01T00:28:57.385Z,1003.71
2019-03-01T00:29:58.826Z,1003.65
2019-03-01T00:31:00.244Z,1003.69
2019-03-01T00:32:01.626Z,1003.65
2019-03-01T00:33:03.027Z,1003.69
2019-03-01T00:34:04.421Z,1003.64
2019-03-01T00:35:05.818Z,1003.61
2019-03-01T00:36:07.205Z,1003.61
2019-03-01T00:37:08.595Z,1003.64
2019-03-01T00:38:10.001Z,1003.61
2019-03-01T00:39:11.463Z,1003.60
2019-03-01T00:40:12.825Z,1003.54
2019-03-01T00:41:14.249Z,1003.55
2019-03-01T00:42:15.642Z,1003.60
2019-03-01T00:43:17.035Z,1003.57
2019-03-01T00:44:18.435Z,1003.55
2019-03-01T00:45:19.810Z,1003.58
2019-03-01T00:46:21.219Z,1003.60
2019-03-01T00:47:22.626Z,1003.58
2019-03-01T00:48:24.020Z,1003.55
2019-03-01T00:49:25.418Z,1003.56
2019-03-01T00:50:27.336Z,1003.54
2019-03-01T00:51:28.748Z,1003.56
2019-03-01T00:52:30.144Z,1003.53
2019-03-01T00:53:31.569Z,1003.54
2019-03-01T00:54:32.958Z,1003.55
2019-03-01T00:55:34.354Z,1003.54
2019-03-01T00:56:35.756Z,1003.56
2019-03-01T00:57:37.126Z,1003.52
2019-03-01T00:58:38.540Z,1003.49
2019-03-01T00:59:39.982Z,1003.50
2019-03-01T01:00:41.361Z,1003.54
2019-03-01T01:01:42.775Z,1003.54
2019-03-01T01:02:44.210Z,1003.51
2019-03-01T01:03:45.617Z,1003.54
2019-03-01T01:04:47.055Z,1003.50
2019-03-01T01:05:48.488Z,1003.50
2019-03-01T01:06:49.902Z,1003.48
2019-03-01T01:07:51.313Z,1003.48
2019-03-01T01:08:52.728Z,1003.49
2019-03-01T01:09:54.136Z,1003.46
2019-03-01T01:10:55.537Z,1003.44
2019-03-01T01:11:56.948Z,1003.44
2019-03-01T01:12:58.962Z,1003.45
2019-03-01T01:14:00.351Z,1003.48
2019-03-01T01:15:01.792Z,1003.49
2019-03-01T01:16:03.190Z,1003.45
2019-03-01T01:17:04.587Z,1003.45
2019-03-01T01:18:06.015Z,1003.43
2019-03-01T01:19:07.400Z,1003.43
2019-03-01T01:20:08.797Z,1003.40
2019-03-01T01:21:10.212Z,1003.43
2019-03-01T01:22:12.363Z,1003.43
2019-03-01T01:23:14.061Z,1003.38
2019-03-01T01:24:15.587Z,1003.37
2019-03-01T01:25:17.305Z,1003.38
2019-03-01T01:26:18.741Z,1003.35
2019-03-01T01:27:20.151Z,1003.37
2019-03-01T01:28:21.583Z,1003.36
2019-03-01T01:29:22.971Z,1003.33
2019-03-01T01:30:24.391Z,1003.38
2019-03-01T01:31:25.813Z,1003.33
2019-03-01T01:32:27.216Z,1003.32
2019-03-01T01:33:28.603Z,1003.33
2019-03-01T01:34:30.003Z,1003.34
2019-03-01T01:35:31.419Z,1003.33
2019-03-01T01:36:32.815Z,1003.34
2019-03-01T01:37:34.207Z,1003.32
2019-03-01T01:38:35.597Z,1003.33
2019-03-01T01:39:36.994Z,1003.31
2019-03-01T01:40:38.407Z,1003.38
2019-03-01T01:41:39.831Z,1003.37
2019-03-01T01:42:41.224Z,1003.36
2019-03-01T01:43:42.627Z,1003.33
2019-03-01T01:44:44.028Z,1003.35
2019-03-01T01:45:45.431Z,1003.36
2019-03-01T01:46:46.860Z,1003.31
2019-03-01T01:47:48.260Z,1003.32
2019-03-01T01:48:49.653Z,1003.35
2019-03-01T01:49:51.049Z,1003.33
2019-03-01T01:50:52.444Z,1003.34
2019-03-01T01:51:53.839Z,1003.36
2019-03-01T01:52:55.263Z,1003.33
2019-03-01T01:53:56.664Z,1003.38
2019-03-01T01:54:58.066Z,1003.39
2019-03-01T01:55:59.473Z,1003.31
2019-03-01T01:57:00.861Z,1003.35
2019-03-01T01:58:02.265Z,1003.33
2019-03-01T01:59:03.667Z,1003.38
2019-03-01T02:00:05.088Z,1003.33
2019-03-01T02:01:06.481Z,1003.33
2019-03-01T02:02:07.893Z,1003.30
2019-03-01T02:03:09.304Z,1003.29
2019-03-01T02:04:10.677Z,1003.26
2019-03-01T02:05:12.081Z,1003.24
2019-03-01T02:06:13.484Z,1003.24
2019-03-01T02:07:14.894Z,1003.26
2019-03-01T02:08:16.303Z,1003.24
2019-03-01T02:09:17.744Z,1003.23
2019-03-01T02:10:19.980Z,1003.25
2019-03-01T02:11:21.385Z,1003.28
2019-03-01T02:12:22.780Z,1003.27
2019-03-01T02:13:24.182Z,1003.24
2019-03-01T02:14:25.582Z,1003.30
2019-03-01T02:15:27.000Z,1003.25
2019-03-01T02:16:28.400Z,1003.23
2019-03-01T02:17:29.802Z,1003.19
2019-03-01T02:18:31.189Z,1003.16
2019-03-01T02:19:32.642Z,1003.13
2019-03-01T02:20:34.025Z,1003.13
2019-03-01T02:21:35.431Z,1003.10
2019-03-01T02:22:36.866Z,1003.14
2019-03-01T02:23:40.074Z,1003.09
2019-03-01T02:24:39.633Z,1003.09
2019-03-01T02:25:41.031Z,1003.06
2019-03-01T02:26:42.430Z,1003.06
2019-03-01T02:27:43.843Z,1003.03
2019-03-01T02:28:45.229Z,1003.04
2019-03-01T02:29:46.630Z,1003.01
2019-03-01T02:30:48.054Z,1003.00
2019-03-01T02:31:49.488Z,1002.96
2019-03-01T02:32:50.907Z,1002.97
2019-03-01T02:33:52.305Z,1002.99
2019-03-01T02:34:53.718Z,1002.96
2019-03-01T02:35:55.115Z,1002.96
2019-03-01T02:36:56.513Z,1002.98
2019-03-01T02:37:57.970Z,1002.98
2019-03-01T02:38:59.269Z,1003.02
2019-03-01T02:40:00.711Z,1002.93
2019-03-01T02:41:02.105Z,1002.97
2019-03-01T02:42:05.308Z,1002.94
2019-03-01T02:43:06.709Z,1002.93
2019-03-01T02:44:08.101Z,1002.92
2019-03-01T02:45:09.489Z,1002.89
2019-03-01T02:46:10.919Z,1002.80
2019-03-01T02:47:12.314Z,1002.86
2019-03-01T02:48:13.702Z,1002.84
2019-03-01T02:49:15.121Z,1002.78
2019-03-01T02:50:16.550Z,1002.78
2019-03-01T02:51:17.944Z,1002.81
2019-03-01T02:52:19.344Z,1002.81
2019-03-01T02:53:20.771Z,1002.79
2019-03-01T02:54:22.177Z,1002.81
2019-03-01T02:55:23.565Z,1002.81
2019-03-01T02:56:24.957Z,1002.83
2019-03-01T02:57:26.365Z,1002.88
2019-03-01T02:58:27.767Z,1002.87
2019-03-01T02:59:29.170Z,1002.89
2019-03-01T03:00:30.575Z,1002.89
2019-03-01T03:01:31.980Z,1002.85
2019-03-01T03:02:33.372Z,1002.88
2019-03-01T03:03:34.774Z,1002.88
2019-03-01T03:04:36.176Z,1002.89
2019-03-01T03:05:37.586Z,1002.86
2019-03-01T03:06:38.981Z,1002.83
2019-03-01T03:07:40.381Z,1002.88
2019-03-01T03:08:41.776Z,1002.80
2019-03-01T03:09:43.183Z,1002.80
2019-03-01T03:10:44.572Z,1002.77
2019-03-01T03:11:45.971Z,1002.74
2019-03-01T03:12:47.354Z,1002.69
2019-03-01T03:13:49.296Z,1002.69
2019-03-01T03:14:50.693Z,1002.68
2019-03-01T03:15:52.085Z,1002.66
2019-03-01T03:16:53.483Z,1002.63
2019-03-01T03:17:54.921Z,1002.61
2019-03-01T03:18:56.327Z,1002.61
2019-03-01T03:19:57.717Z,1002.58
2019-03-01T03:20:59.117Z,1002.59
2019-03-01T03:22:00.527Z,1002.56
2019-03-01T03:23:01.948Z,1002.53
2019-03-01T03:24:03.332Z,1002.50
2019-03-01T03:25:04.737Z,1002.50
2019-03-01T03:26:06.136Z,1002.53
2019-03-01T03:27:07.544Z,1002.49
2019-03-01T03:28:08.941Z,1002.52
2019-03-01T03:29:10.357Z,1002.53
2019-03-01T03:30:11.733Z,1002.50
2019-03-01T03:31:13.146Z,1002.48
2019-03-01T03:32:14.542Z,1002.46
2019-03-01T03:33:15.952Z,1002.46
2019-03-01T03:34:17.401Z,1002.46
2019-03-01T03:35:18.789Z,1002.50
2019-03-01T03:36:20.203Z,1002.53
2019-03-01T03:37:21.604Z,1002.49
2019-03-01T03:38:23.031Z,1002.54
2019-03-01T03:39:24.425Z,1002.59
2019-03-01T03:40:25.849Z,1002.58
2019-03-01T03:41:27.287Z,1002.58
2019-03-01T03:42:28.722Z,1002.55
2019-03-01T03:43:30.093Z,1002.54
2019-03-01T03:44:31.486Z,1002.52
2019-03-01T03:45:32.893Z,1002.56
2019-03-01T03:46:34.293Z,1002.54
2019-03-01T03:47:35.701Z,1002.52
2019-03-01T03:48:37.111Z,1002.51
2019-03-01T03:49:38.514Z,1002.51
2019-03-01T03:50:39.909Z,1002.53
2019-03-01T03:51:41.313Z,1002.50
2019-03-01T03:52:42.720Z,1002.49
2019-03-01T03:53:44.150Z,1002.49
2019-03-01T03:54:45.570Z,1002.51
2019-03-01T03:55:46.976Z,1002.49
2019-03-01T03:56:48.353Z,1002.51
2019-03-01T03:57:49.751Z,1002.50
2019-03-01T03:58:51.142Z,1002.53
2019-03-01T03:59:52.541Z,1002.51
2019-03-01T04:00:53.931Z,1002.50
2019-03-01T04:01:55.746Z,1002.52
2019-03-01T04:02:57.163Z,1002.53
2019-03-01T04:03:58.575Z,1002.56
2019-03-01T04:04:59.975Z,1002.53
2019-03-01T04:06:01.373Z,1002.51
2019-03-01T04:07:02.783Z,1002.51
2019-03-01T04:08:04.278Z,1002.49
2019-03-01T04:09:05.535Z,1002.44
2019-03-01T04:10:06.961Z,1002.42
2019-03-01T04:11:08.368Z,1002.41
2019-03-01T04:12:09.773Z,1002.43
2019-03-01T04:13:11.167Z,1002.44
2019-03-01T04:14:12.577Z,1002.43
2019-03-01T04:15:13.968Z,1002.43
2019-03-01T04:16:15.388Z,1002.42
2019-03-01T04:17:17.770Z,1002.39
2019-03-01T04:18:19.180Z,1002.37
2019-03-01T04:19:20.582Z,1002.35
2019-03-01T04:20:21.988Z,1002.41
2019-03-01T04:21:23.382Z,1002.41
2019-03-01T04:22:24.774Z,1002.44
2019-03-01T04:23:26.169Z,1002.40
2019-03-01T04:24:27.589Z,1002.38
2019-03-01T04:25:28.990Z,1002.44
2019-03-01T04:26:30.410Z,1002.41
2019-03-01T04:27:31.830Z,1002.39
2019-03-01T04:28:33.239Z,1002.40
2019-03-01T04:29:34.646Z,1002.43
2019-03-01T04:30:36.062Z,1002.49
2019-03-01T04:31:37.492Z,1002.47
2019-03-01T04:32:38.906Z,1002.49
2019-03-01T04:33:40.338Z,1002.46
2019-03-01T04:34:41.754Z,1002.44
2019-03-01T04:35:43.158Z,1002.47
2019-03-01T04:36:44.559Z,1002.46
2019-03-01T04:37:45.967Z,1002.51
2019-03-01T04:38:47.389Z,1002.48
2019-03-01T04:39:48.792Z,1002.50
2019-03-01T04:40:50.932Z,1002.48
2019-03-01T04:41:52.347Z,1002.49
2019-03-01T04:42:53.757Z,1002.49
2019-03-01T04:43:55.168Z,1002.50
2019-03-01T04:44:56.559Z,1002.48
2019-03-01T04:45:57.973Z,1002.54
2019-03-01T04:46:59.369Z,1002.52
2019-03-01T04:48:00.788Z,1002.53
2019-03-01T04:49:02.837Z,1002.54
2019-03-01T04:50:04.249Z,1002.58
2019-03-01T04:51:05.641Z,1002.52
2019-03-01T04:52:07.039Z,1002.54
2019-03-01T04:53:08.497Z,1002.54
2019-03-01T04:54:09.915Z,1002.53
2019-03-01T04:55:11.333Z,1002.53
2019-03-01T04:56:12.734Z,1002.54
2019-03-01T04:57:14.148Z,1002.54
2019-03-01T04:58:15.574Z,1002.56
2019-03-01T04:59:17.003Z,1002.55
2019-03-01T05:00:18.426Z,1002.52
2019-03-01T05:01:19.816Z,1002.55
2019-03-01T05:02:21.218Z,1002.56
2019-03-01T05:03:22.620Z,1002.52
2019-03-01T05:04:24.027Z,1002.52
2019-03-01T05:05:25.446Z,1002.52
2019-03-01T05:06:26.843Z,1002.47
2019-03-01T05:07:28.257Z,1002.47
2019-03-01T05:08:29.672Z,1002.49
2019-03-01T05:09:31.086Z,1002.49
2019-03-01T05:10:32.526Z,1002.53
2019-03-01T05:11:33.933Z,1002.47
2019-03-01T05:12:35.321Z,1002.48
2019-03-01T05:13:36.771Z,1002.47
2019-03-01T05:14:38.163Z,1002.51
2019-03-01T05:15:39.579Z,1002.48
2019-03-01T05:16:40.989Z,1002.53
2019-03-01T05:17:42.368Z,1002.50
2019-03-01T05:18:43.789Z,1002.55
2019-03-01T05:19:45.213Z,1002.54
2019-03-01T05:20:46.613Z,1002.54
2019-03-01T05:21:48.009Z,1002.55
2019-03-01T05:22:49.419Z,1002.57
2019-03-01T05:23:50.828Z,1002.54
2019-03-01T05:24:52.252Z,1002.50
2019-03-01T05:25:53.653Z,1002.54
2019-03-01T05:26:55.058Z,1002.54
2019-03-01T05:27:56.481Z,1002.52
2019-03-01T05:28:57.910Z,1002.51
2019-03-01T05:29:59.356Z,1002.48
2019-03-01T05:31:00.774Z,1002.47
2019-03-01T05:32:02.144Z,1002.44
2019-03-01T05:33:03.548Z,1002.44
2019-03-01T05:34:04.942Z,1002.45
2019-03-01T05:35:06.328Z,1002.46
2019-03-01T05:36:07.724Z,1002.45
2019-03-01T05:37:09.109Z,1002.45
2019-03-01T05:38:10.540Z,1002.45
2019-03-01T05:39:11.910Z,1002.47
2019-03-01T05:40:13.297Z,1002.46
2019-03-01T05:41:14.710Z,1002.51
2019-03-01T05:42:16.111Z,1002.50
2019-03-01T05:43:17.514Z,1002.49
2019-03-01T05:44:18.901Z,1002.51
2019-03-01T05:45:20.301Z,1002.53
2019-03-01T05:46:21.694Z,1002.55
2019-03-01T05:47:23.113Z,1002.50
2019-03-01T05:48:24.505Z,1002.51
2019-03-01T05:49:25.891Z,1002.50
2019-03-01T05:50:27.278Z,1002.48
2019-03-01T05:51:28.660Z,1002.46
2019-03-01T05:52:30.070Z,1002.43
2019-03-01T05:53:31.472Z,1002.45
2019-03-01T05:54:32.875Z,1002.43
2019-03-01T05:55:34.265Z,1002.45
2019-03-01T05:56:35.674Z,1002.50
2019-03-01T05:57:37.065Z,1002.50
2019-03-01T05:58:38.486Z,1002.52
2019-03-01T05:59:39.848Z,1002.56
2019-03-01T06:00:41.244Z,1002.55
2019-03-01T06:01:42.643Z,1002.54
2019-03-01T06:02:44.038Z,1002.53
2019-03-01T06:03:45.447Z,1002.52
2019-03-01T06:04:46.851Z,1002.55
2019-03-01T06:05:48.267Z,1002.55
2019-03-01T06:06:49.674Z,1002.61
2019-03-01T06:07:51.073Z,1002.61
2019-03-01T06:08:52.470Z,1002.63
2019-03-01T06:09:53.862Z,1002.62
2019-03-01T06:10:55.997Z,1002.61
2019-03-01T06:11:56.593Z,1002.56
2019-03-01T06:12:57.981Z,1002.62
2019-03-01T06:13:59.365Z,1002.58
2019-03-01T06:15:00.807Z,1002.61
2019-03-01T06:16:02.255Z,1002.61
2019-03-01T06:17:03.683Z,1002.59
2019-03-01T06:18:05.094Z,1002.58
2019-03-01T06:19:06.493Z,1002.62
2019-03-01T06:20:07.898Z,1002.62
2019-03-01T06:21:09.287Z,1002.60
2019-03-01T06:22:10.680Z,1002.63
2019-03-01T06:23:12.080Z,1002.63
2019-03-01T06:24:13.454Z,1002.64
2019-03-01T06:25:14.868Z,1002.66
2019-03-01T06:26:16.277Z,1002.62
2019-03-01T06:27:17.678Z,1002.64
2019-03-01T06:28:19.074Z,1002.61
2019-03-01T06:29:20.506Z,1002.56
2019-03-01T06:30:21.935Z,1002.57
2019-03-01T06:31:23.331Z,1002.58
2019-03-01T06:32:24.720Z,1002.60
2019-03-01T06:33:26.113Z,1002.58
2019-03-01T06:34:27.568Z,1002.60
2019-03-01T06:35:28.966Z,1002.64
2019-03-01T06:36:30.365Z,1002.64
2019-03-01T06:37:31.775Z,1002.66
2019-03-01T06:38:33.179Z,1002.63
2019-03-01T06:39:34.619Z,1002.66
2019-03-01T06:40:36.010Z,1002.66
2019-03-01T06:41:37.398Z,1002.66
2019-03-01T06:42:38.792Z,1002.65
2019-03-01T06:43:40.193Z,1002.67
2019-03-01T06:44:41.586Z,1002.69
2019-03-01T06:45:42.992Z,1002.72
2019-03-01T06:46:44.388Z,1002.72
2019-03-01T06:47:45.786Z,1002.72
2019-03-01T06:48:47.189Z,1002.66
2019-03-01T06:49:48.610Z,1002.74
2019-03-01T06:50:50.033Z,1002.76
2019-03-01T06:51:51.464Z,1002.76
2019-03-01T06:52:52.865Z,1002.78
2019-03-01T06:53:54.278Z,1002.74
2019-03-01T06:54:55.660Z,1002.74
2019-03-01T06:55:57.078Z,1002.73
2019-03-01T06:56:58.487Z,1002.72
2019-03-01T06:57:59.877Z,1002.71
2019-03-01T06:59:01.286Z,1002.69
2019-03-01T07:00:02.683Z,1002.69
2019-03-01T07:01:04.083Z,1002.69
2019-03-01T07:02:05.482Z,1002.69
2019-03-01T07:03:06.904Z,1002.64
2019-03-01T07:04:08.308Z,1002.73
2019-03-01T07:05:09.722Z,1002.70
2019-03-01T07:06:11.146Z,1002.70
2019-03-01T07:07:12.552Z,1002.70
2019-03-01T07:08:13.960Z,1002.68
2019-03-01T07:09:15.362Z,1002.70
2019-03-01T07:10:16.750Z,1002.71
2019-03-01T07:11:18.163Z,1002.69
2019-03-01T07:12:19.564Z,1002.68
2019-03-01T07:13:20.962Z,1002.65
2019-03-01T07:14:22.362Z,1002.66
2019-03-01T07:15:23.753Z,1002.63
2019-03-01T07:16:25.161Z,1002.65
2019-03-01T07:17:26.559Z,1002.67
2019-03-01T07:18:27.991Z,1002.62
2019-03-01T07:19:29.390Z,1002.66
2019-03-01T07:20:30.798Z,1002.67
2019-03-01T07:21:32.192Z,1002.63
2019-03-01T07:22:33.589Z,1002.60
2019-03-01T07:23:36.949Z,1002.62
2019-03-01T07:24:36.352Z,1002.59
2019-03-01T07:25:37.751Z,1002.56
2019-03-01T07:26:39.140Z,1002.56
2019-03-01T07:27:40.543Z,1002.60
2019-03-01T07:28:41.935Z,1002.58
2019-03-01T07:29:43.330Z,1002.58
2019-03-01T07:30:44.724Z,1002.63
2019-03-01T07:31:46.176Z,1002.64
2019-03-01T07:32:47.572Z,1002.65
2019-03-01T07:33:48.975Z,1002.69
2019-03-01T07:34:50.368Z,1002.67
2019-03-01T07:35:51.771Z,1002.69
2019-03-01T07:36:53.166Z,1002.77
2019-03-01T07:37:54.553Z,1002.74
2019-03-01T07:38:55.953Z,1002.75
2019-03-01T07:39:57.367Z,1002.80
2019-03-01T07:40:59.512Z,1002.80
2019-03-01T07:42:00.127Z,1002.81
2019-03-01T07:43:01.513Z,1002.88
2019-03-01T07:44:02.914Z,1002.82
2019-03-01T07:45:04.309Z,1002.84
2019-03-01T07:46:05.711Z,1002.81
2019-03-01T07:47:07.105Z,1002.90
2019-03-01T07:48:08.508Z,1002.89
2019-03-01T07:49:09.910Z,1002.86
2019-03-01T07:50:11.294Z,1002.86
2019-03-01T07:51:12.688Z,1002.85
2019-03-01T07:52:14.092Z,1002.86
2019-03-01T07:53:15.486Z,1002.86
2019-03-01T07:54:18.018Z,1002.86
2019-03-01T07:55:18.258Z,1002.90
2019-03-01T07:56:19.675Z,1002.88
2019-03-01T07:57:21.068Z,1002.88
2019-03-01T07:58:25.637Z,1002.89
2019-03-01T07:59:24.112Z,1002.93
2019-03-01T08:00:25.232Z,1002.94
2019-03-01T08:01:29.218Z,1002.92
2019-03-01T08:02:28.020Z,1002.92
2019-03-01T08:03:29.439Z,1002.92
2019-03-01T08:04:30.861Z,1002.93
2019-03-01T08:05:32.253Z,1002.96
2019-03-01T08:06:33.647Z,1002.98
2019-03-01T08:07:35.063Z,1002.99
2019-03-01T08:08:38.830Z,1002.98
2019-03-01T08:09:37.836Z,1002.98
2019-03-01T08:10:39.247Z,1003.06
2019-03-01T08:11:40.636Z,1003.06
2019-03-01T08:12:42.517Z,1003.08
2019-03-01T08:13:43.407Z,1003.01
2019-03-01T08:14:44.803Z,1003.00
2019-03-01T08:15:46.793Z,1003.05
2019-03-01T08:16:48.994Z,1003.04
2019-03-01T08:17:50.422Z,1003.08
2019-03-01T08:18:51.822Z,1003.07
2019-03-01T08:19:54.965Z,1003.11
2019-03-01T08:20:54.589Z,1003.09
2019-03-01T08:21:55.997Z,1003.10
2019-03-01T08:22:59.834Z,1003.09
2019-03-01T08:23:58.776Z,1003.08
2019-03-01T08:25:00.255Z,1003.09
2019-03-01T08:26:03.277Z,1003.08
2019-03-01T08:27:06.556Z,1003.08
2019-03-01T08:28:04.266Z,1003.04
2019-03-01T08:29:05.665Z,1003.02
2019-03-01T08:30:10.277Z,1003.02
2019-03-01T08:31:09.844Z,1003.02
2019-03-01T08:32:09.812Z,1003.05
2019-03-01T08:33:11.236Z,1003.05
2019-03-01T08:34:14.501Z,1003.03
2019-03-01T08:35:14.005Z,1003.00
2019-03-01T08:36:15.409Z,1003.03
2019-03-01T08:37:17.656Z,1003.03
2019-03-01T08:38:18.913Z,1003.03
2019-03-01T08:39:20.324Z,1003.01
2019-03-01T08:40:21.731Z,1003.01
2019-03-01T08:41:24.973Z,1003.02
2019-03-01T08:42:24.513Z,1003.00
2019-03-01T08:43:25.948Z,1003.06
2019-03-01T08:44:27.353Z,1003.06
2019-03-01T08:45:29.759Z,1003.09
2019-03-01T08:46:30.140Z,1003.09
2019-03-01T08:47:31.566Z,1003.09
2019-03-01T08:48:33.671Z,1003.08
2019-03-01T08:49:34.320Z,1003.04
2019-03-01T08:50:35.732Z,1003.08
2019-03-01T08:51:37.138Z,1003.08
2019-03-01T08:52:40.443Z,1003.11
2019-03-01T08:53:39.926Z,1003.11
2019-03-01T08:54:41.399Z,1003.08
2019-03-01T08:55:42.823Z,1003.12
2019-03-01T08:56:46.371Z,1003.12
2019-03-01T08:57:45.635Z,1003.13
2019-03-01T08:58:47.043Z,1003.16
2019-03-01T08:59:48.467Z,1003.17
2019-03-01T09:00:59.047Z,1003.16
2019-03-01T09:01:51.227Z,1003.20
2019-03-01T09:02:52.665Z,1003.20
2019-03-01T09:03:54.077Z,1003.20
2019-03-01T09:04:55.475Z,1003.23
2019-03-01T09:05:56.878Z,1003.20
2019-03-01T09:06:58.314Z,1003.17
2019-03-01T09:07:59.717Z,1003.20
2019-03-01T09:09:01.134Z,1003.19
2019-03-01T09:10:02.544Z,1003.20
2019-03-01T09:11:05.498Z,1003.19
2019-03-01T09:12:05.355Z,1003.22
2019-03-01T09:13:06.755Z,1003.24
2019-03-01T09:14:08.122Z,1003.29
2019-03-01T09:15:09.560Z,1003.25
2019-03-01T09:16:10.936Z,1003.27
2019-03-01T09:17:12.344Z,1003.29
2019-03-01T09:18:14.607Z,1003.32
2019-03-01T09:19:15.796Z,1003.26
2019-03-01T09:20:17.200Z,1003.29
2019-03-01T09:21:18.602Z,1003.27
2019-03-01T09:22:20.000Z,1003.32
2019-03-01T09:23:25.339Z,1003.30
2019-03-01T09:24:25.786Z,1003.27
2019-03-01T09:25:24.110Z,1003.30
2019-03-01T09:26:25.511Z,1003.36
2019-03-01T09:27:30.056Z,1003.40
2019-03-01T09:28:28.275Z,1003.38
2019-03-01T09:29:29.685Z,1003.42
2019-03-01T09:30:31.069Z,1003.48
2019-03-01T09:31:32.461Z,1003.46
2019-03-01T09:32:34.787Z,1003.45
2019-03-01T09:33:35.212Z,1003.48
2019-03-01T09:34:36.633Z,1003.43
2019-03-01T09:35:39.608Z,1003.42
2019-03-01T09:36:40.125Z,1003.41
2019-03-01T09:37:41.535Z,1003.43
2019-03-01T09:38:43.691Z,1003.48
2019-03-01T09:39:44.306Z,1003.47
2019-03-01T09:40:45.695Z,1003.35
2019-03-01T09:41:47.096Z,1003.42
2019-03-01T09:42:51.259Z,1003.39
2019-03-01T09:43:49.860Z,1003.43
2019-03-01T09:44:51.252Z,1003.44
2019-03-01T09:45:52.653Z,1003.46
2019-03-01T09:46:54.042Z,1003.45
2019-03-01T09:47:55.440Z,1003.48
2019-03-01T09:48:56.848Z,1003.44
2019-03-01T09:50:00.226Z,1003.46
2019-03-01T09:50:59.602Z,1003.45
2019-03-01T09:52:01.043Z,1003.46
2019-03-01T09:53:02.432Z,1003.44
2019-03-01T09:54:06.463Z,1003.45
2019-03-01T09:55:05.571Z,1003.44
2019-03-01T09:56:09.596Z,1003.45
2019-03-01T09:57:07.923Z,1003.48
2019-03-01T09:58:09.327Z,1003.49
2019-03-01T09:59:10.729Z,1003.52
2019-03-01T10:00:12.141Z,1003.48
2019-03-01T10:01:13.540Z,1003.43
2019-03-01T10:02:14.949Z,1003.47
2019-03-01T10:03:16.348Z,1003.51
2019-03-01T10:04:17.748Z,1003.54
2019-03-01T10:05:19.144Z,1003.53
2019-03-01T10:06:20.550Z,1003.52
2019-03-01T10:07:21.951Z,1003.53
2019-03-01T10:08:23.586Z,1003.51
2019-03-01T10:09:25.224Z,1003.54
2019-03-01T10:10:26.616Z,1003.60
2019-03-01T10:11:28.011Z,1003.61
2019-03-01T10:12:29.422Z,1003.71
2019-03-01T10:13:30.822Z,1003.71
2019-03-01T10:14:32.228Z,1003.67
2019-03-01T10:15:33.639Z,1003.66
2019-03-01T10:16:35.185Z,1003.66
2019-03-01T10:17:36.642Z,1003.67
2019-03-01T10:18:38.292Z,1003.67
2019-03-01T10:19:39.714Z,1003.66
2019-03-01T10:20:41.242Z,1003.67
2019-03-01T10:21:42.736Z,1003.72
2019-03-01T10:22:44.200Z,1003.68
2019-03-01T10:23:45.619Z,1003.67
2019-03-01T10:24:47.023Z,1003.67
2019-03-01T10:25:48.455Z,1003.68
2019-03-01T10:26:49.863Z,1003.67
2019-03-01T10:27:51.293Z,1003.74
2019-03-01T10:28:52.721Z,1003.72
2019-03-01T10:29:54.136Z,1003.74
2019-03-01T10:30:55.549Z,1003.70
2019-03-01T10:31:57.536Z,1003.73
2019-03-01T10:32:58.286Z,1003.72
2019-03-01T10:33:59.704Z,1003.78
2019-03-01T10:35:01.079Z,1003.87
2019-03-01T10:36:02.481Z,1003.92
2019-03-01T10:37:03.879Z,1003.91
2019-03-01T10:38:05.276Z,1003.92
2019-03-01T10:39:07.652Z,1003.97
2019-03-01T10:40:09.089Z,1004.08
2019-03-01T10:41:10.493Z,1004.03
2019-03-01T10:42:11.917Z,1004.10
2019-03-01T10:43:13.329Z,1004.10
2019-03-01T10:44:14.731Z,1004.07
2019-03-01T10:45:16.124Z,1004.03
2019-03-01T10:46:17.535Z,1003.97
2019-03-01T10:47:18.934Z,1003.94
2019-03-01T10:48:20.530Z,1003.92
2019-03-01T10:49:22.054Z,1003.91
2019-03-01T10:50:23.466Z,1003.94
2019-03-01T10:51:24.866Z,1003.92
2019-03-01T10:52:26.274Z,1003.95
2019-03-01T10:53:27.722Z,1003.98
2019-03-01T10:54:29.124Z,1003.94
2019-03-01T10:55:30.528Z,1003.96
2019-03-01T10:56:31.921Z,1003.96
2019-03-01T10:57:33.339Z,1004.02
2019-03-01T10:58:34.745Z,1004.01
2019-03-01T10:59:36.129Z,1004.01
2019-03-01T11:00:37.547Z,1004.02
2019-03-01T11:01:38.963Z,1004.01
2019-03-01T11:02:40.404Z,1004.00
2019-03-01T11:03:41.795Z,1004.01
2019-03-01T11:04:43.221Z,1004.05
2019-03-01T11:05:44.641Z,1004.04
2019-03-01T11:06:46.044Z,1004.00
2019-03-01T11:07:47.463Z,1003.98
2019-03-01T11:08:48.854Z,1003.97
2019-03-01T11:09:50.277Z,1003.99
2019-03-01T11:10:51.693Z,1003.97
2019-03-01T11:11:53.086Z,1003.96
2019-03-01T11:12:54.499Z,1003.97
2019-03-01T11:13:55.916Z,1003.98
2019-03-01T11:14:57.327Z,1003.99
2019-03-01T11:15:58.756Z,1003.99
2019-03-01T11:17:00.168Z,1004.01
2019-03-01T11:18:01.584Z,1004.02
2019-03-01T11:19:03.010Z,1004.00
2019-03-01T11:20:04.422Z,1003.97
2019-03-01T11:21:05.879Z,1003.98
2019-03-01T11:22:07.282Z,1003.97
2019-03-01T11:23:08.719Z,1004.04
2019-03-01T11:24:10.110Z,1004.03
2019-03-01T11:25:11.531Z,1004.02
2019-03-01T11:26:12.934Z,1004.05
2019-03-01T11:27:14.337Z,1004.11
2019-03-01T11:28:15.759Z,1004.12
2019-03-01T11:29:17.157Z,1004.07
2019-03-01T11:30:18.553Z,1004.10
2019-03-01T11:31:19.959Z,1004.14
2019-03-01T11:32:21.375Z,1004.18
2019-03-01T11:33:22.782Z,1004.15
2019-03-01T11:34:24.195Z,1004.15
2019-03-01T11:35:25.613Z,1004.15
2019-03-01T11:36:27.018Z,1004.14
2019-03-01T11:37:28.425Z,1004.17
2019-03-01T11:38:29.835Z,1004.15
2019-03-01T11:39:31.256Z,1004.09
2019-03-01T11:40:32.701Z,1004.06
2019-03-01T11:41:34.113Z,1004.04
2019-03-01T11:42:35.519Z,1004.03
2019-03-01T11:43:36.932Z,1004.03
2019-03-01T11:44:38.355Z,1003.99
2019-03-01T11:45:39.754Z,1003.98
2019-03-01T11:46:41.154Z,1003.93
2019-03-01T11:47:42.605Z,1003.91
2019-03-01T11:48:43.965Z,1003.91
2019-03-01T11:49:45.399Z,1003.92
2019-03-01T11:50:46.806Z,1003.96
2019-03-01T11:51:48.249Z,1003.97
2019-03-01T11:52:49.682Z,1004.05
2019-03-01T11:53:51.105Z,1004.05
2019-03-01T11:54:52.531Z,1004.09
2019-03-01T11:55:53.942Z,1004.07
2019-03-01T11:56:55.350Z,1004.08
2019-03-01T11:57:56.760Z,1004.07
2019-03-01T11:58:58.237Z,1004.10
2019-03-01T11:59:59.638Z,1004.08
2019-03-01T12:01:01.045Z,1004.14
2019-03-01T12:02:02.471Z,1004.14
2019-03-01T12:03:03.884Z,1004.11
2019-03-01T12:04:05.297Z,1004.13
2019-03-01T12:05:06.696Z,1004.13
2019-03-01T12:06:08.093Z,1004.15
2019-03-01T12:07:09.496Z,1004.19
2019-03-01T12:08:10.930Z,1004.20
2019-03-01T12:09:12.351Z,1004.21
2019-03-01T12:10:13.778Z,1004.24
2019-03-01T12:11:15.181Z,1004.24
2019-03-01T12:12:16.600Z,1004.30
2019-03-01T12:13:18.019Z,1004.32
2019-03-01T12:14:20.350Z,1004.36
2019-03-01T12:15:21.760Z,1004.29
2019-03-01T12:16:23.188Z,1004.31
2019-03-01T12:17:24.649Z,1004.34
2019-03-01T12:18:26.071Z,1004.31
2019-03-01T12:19:27.497Z,1004.27
2019-03-01T12:20:28.908Z,1004.32
2019-03-01T12:21:30.291Z,1004.28
2019-03-01T12:22:31.697Z,1004.34